Time;durP1;ratioP1;P1;durP2;ratioP2;P2;SDS_P1;SDS_P2;PMS_P1;PMS_P2;Temp;Humidity;BMP_temperature;BMP_pressure;BME280_temperature;BME280_humidity;BME280_pressure;Samples;Min_cycle;Max_cycle;Signal;HPM_P1;HPM_P2
2023/07/03 00:00:25;;;;;;;15.57;11.40;;;16.60;99.90;;;-141.84;62.33;20907.41;4898792;29;20236;-72
2023/07/03 00:02:53;;;;;;;16.85;11.07;;;16.70;99.90;;;-141.84;61.21;20909.44;4905657;29;20264;-69
2023/07/03 00:05:23;;;;;;;18.00;11.90;;;16.70;99.90;;;-141.84;61.51;20937.91;4888180;29;20210;-71
2023/07/03 00:07:52;;;;;;;16.23;10.55;;;16.80;99.90;;;-141.84;61.59;20950.09;4887559;29;20618;-72
2023/07/03 00:10:21;;;;;;;16.05;11.23;;;16.80;99.90;;;-141.84;62.14;20915.53;4880665;29;20234;-70
2023/07/03 00:12:50;;;;;;;14.43;10.50;;;16.80;99.90;;;-141.84;62.23;20923.66;4901058;29;20250;-71
2023/07/03 00:15:19;;;;;;;14.07;10.63;;;16.90;99.90;;;-141.84;62.55;20968.38;4895144;29;20239;-72
2023/07/03 00:17:48;;;;;;;17.55;11.57;;;16.90;99.90;;;-141.84;62.93;20935.88;4888025;29;20237;-72
2023/07/03 00:20:16;;;;;;;14.55;11.30;;;16.90;99.90;;;-141.84;63.47;20927.72;4887042;29;20234;-66
2023/07/03 00:22:46;;;;;;;16.20;11.23;;;16.80;99.90;;;-141.84;64.21;20876.91;4906826;29;20234;-71
2023/07/03 00:25:15;;;;;;;15.48;10.55;;;16.80;99.90;;;-141.84;64.99;20907.41;4906458;29;20234;-73
2023/07/03 00:27:43;;;;;;;14.88;11.30;;;16.80;99.90;;;-141.84;65.59;20895.19;4885972;29;20487;-71
2023/07/03 00:30:13;;;;;;;19.92;12.10;;;16.70;99.90;;;-141.84;65.30;20883.00;4871824;29;20245;-70
2023/07/03 00:32:43;;;;;;;17.10;11.95;;;16.90;99.90;;;-141.84;65.61;20891.13;4886358;29;20690;-70
2023/07/03 00:35:11;;;;;;;16.98;11.23;;;16.70;99.90;;;-141.84;65.80;20899.28;4868918;29;20238;-70
2023/07/03 00:37:40;;;;;;;16.63;11.57;;;16.70;99.90;;;-141.84;66.03;20878.94;4877020;29;20239;-72
2023/07/03 00:40:10;;;;;;;19.23;11.18;;;16.70;99.90;;;-141.84;66.12;20915.53;4887449;29;20321;-72
2023/07/03 00:42:39;;;;;;;16.90;10.98;;;16.70;99.90;;;-141.84;65.60;20885.03;4882273;29;20925;-72
2023/07/03 00:45:10;;;;;;;17.85;11.63;;;16.70;99.90;;;-141.84;65.75;20883.00;4887591;29;20211;-59
2023/07/03 00:47:39;;;;;;;16.00;11.20;;;16.70;99.90;;;-141.84;65.44;20923.66;4887075;29;20299;-61
2023/07/03 00:50:10;;;;;;;20.45;11.63;;;16.80;99.90;;;-141.84;64.71;20948.06;4886952;29;20702;-60
2023/07/03 00:52:41;;;;;;;15.70;10.95;;;16.80;99.90;;;-141.84;65.18;20907.41;4883939;29;20332;-60
2023/07/03 00:55:13;;;;;;;16.98;11.40;;;16.80;99.90;;;-141.84;65.18;20923.66;4890492;29;20230;-61
2023/07/03 00:57:42;;;;;;;15.48;10.88;;;16.80;99.90;;;-141.84;64.58;20919.59;4890846;29;20638;-60
2023/07/03 01:00:13;;;;;;;15.65;10.90;;;16.80;99.90;;;-141.84;64.93;20923.66;4890417;29;20216;-60
2023/07/03 01:02:49;;;;;;;13.23;10.50;;;16.80;99.90;;;-141.84;65.53;20876.91;4898019;29;20684;-60
2023/07/03 01:05:28;;;;;;;13.45;10.20;;;16.80;99.90;;;-141.84;65.75;20870.81;4872045;29;20354;-71
2023/07/03 01:07:58;;;;;;;13.95;10.65;;;16.80;99.90;;;-141.84;65.46;20872.84;4904903;29;20351;-70
2023/07/03 01:10:31;;;;;;;17.42;11.68;;;16.80;99.90;;;-141.84;65.34;20883.00;4889552;29;20674;-72
2023/07/03 01:13:06;;;;;;;14.50;10.32;;;16.80;99.90;;;-141.84;64.85;20907.41;4906150;29;20242;-72
2023/07/03 01:15:41;;;;;;;16.55;11.15;;;16.80;99.90;;;-141.84;65.25;20925.69;4895419;29;20274;-70
2023/07/03 01:18:11;;;;;;;13.40;9.95;;;16.90;99.90;;;-141.84;64.92;20913.50;4890397;29;20218;-70
2023/07/03 01:20:49;;;;;;;17.55;10.98;;;16.90;99.90;;;-141.84;65.04;20915.53;4895565;29;20305;-70
2023/07/03 01:23:27;;;;;;;15.30;10.38;;;16.90;99.90;;;-141.84;64.37;20962.28;4895813;29;20265;-70
2023/07/03 01:25:59;;;;;;;14.32;9.88;;;17.00;99.90;;;-141.84;63.52;21011.09;4890454;29;20726;-70
2023/07/03 01:28:30;;;;;;;18.17;11.15;;;17.10;99.90;;;-141.84;63.04;20990.75;4883184;29;20235;-71
2023/07/03 01:31:00;;;;;;;15.35;10.60;;;17.10;99.90;;;-141.84;62.91;21007.00;4889791;29;20423;-70
2023/07/03 01:33:32;;;;;;;16.48;10.90;;;17.20;99.90;;;-141.84;63.24;21015.16;4889585;29;20254;-71
2023/07/03 01:36:02;;;;;;;16.35;10.55;;;17.20;99.90;;;-141.84;62.85;20976.53;4889631;29;20436;-71
2023/07/03 01:38:31;;;;;;;17.10;10.93;;;17.20;99.90;;;-141.84;63.46;20952.13;4883396;29;20647;-70
2023/07/03 01:41:01;;;;;;;13.45;10.60;;;17.20;99.90;;;-141.84;64.11;20956.19;4889719;29;20695;-71
2023/07/03 01:43:31;;;;;;;14.02;10.10;;;;;;;-141.84;64.06;20974.50;4890220;29;20290;-73
2023/07/03 01:45:59;;;;;;;14.80;10.07;;;;;;;-141.84;64.61;20941.97;4889726;29;20452;-71
2023/07/03 01:48:32;;;;;;;14.70;10.75;;;;;;;-141.84;64.59;20976.53;4883248;29;20231;-72
2023/07/03 01:51:03;;;;;;;14.70;10.75;;;;;;;-141.84;63.89;20968.38;4889523;29;20754;-72
2023/07/03 01:53:40;;;;;;;17.90;10.90;;;;;;;-141.84;63.72;20992.78;4890237;29;20245;-71
2023/07/03 01:56:15;;;;;;;14.90;10.38;;;;;;;-141.84;63.91;20964.31;4890095;29;20226;-70
2023/07/03 01:58:48;;;;;;;13.23;10.43;;;;;;;-141.84;64.49;20986.69;4889269;29;20706;-70
2023/07/03 02:01:22;;;;;;;16.85;10.55;;;;;;;-141.84;64.86;20968.38;4889241;29;20277;-71
2023/07/03 02:03:55;;;;;;;17.02;10.40;;;;;;;-141.84;64.01;20978.56;4884647;29;20317;-70
2023/07/03 02:06:28;;;;;;;14.38;10.40;;;;;;;-141.84;64.70;20944.00;4881330;29;20733;-72
2023/07/03 02:08:57;;;;;;;14.55;10.20;;;;;;;-141.84;65.06;20905.38;4889524;29;20734;-71
2023/07/03 02:11:29;;;;;;;14.52;10.68;;;;;;;-141.84;63.94;20960.25;4892543;29;20199;-71
2023/07/03 02:13:58;;;;;;;15.55;10.20;;;;;;;-141.84;64.23;20952.13;4906912;29;20641;-72
2023/07/03 02:16:29;;;;;;;17.77;11.15;;;;;;;-141.84;64.44;20974.50;4881125;29;20321;-71
2023/07/03 02:18:59;;;;;;;14.38;10.70;;;;;;;-141.84;64.48;20966.34;4889351;29;20230;-71
2023/07/03 02:21:29;;;;;;;15.50;10.32;;;;;;;-141.84;64.25;20968.38;4905602;29;20265;-71
2023/07/03 02:23:57;;;;;;;14.48;10.68;;;;;;;-141.84;64.31;20984.66;4907468;29;20245;-71
2023/07/03 02:26:27;;;;;;;15.52;10.88;;;;;;;-141.84;64.20;21009.03;4900781;29;20245;-71
2023/07/03 02:28:56;;;;;;;14.07;10.80;;;;;;;-141.84;65.02;20988.72;4896458;29;20317;-70
2023/07/03 02:31:24;;;;;;;12.52;10.35;;;;;;;-141.84;64.89;20939.94;4889003;29;20266;-72
2023/07/03 02:33:53;;;;;;;14.93;11.10;;;;;;;-141.84;65.49;20927.72;4895828;29;20230;-71
2023/07/03 02:36:24;;;;;;;17.05;11.25;;;;;;;-141.84;64.81;20962.28;4900020;29;20750;-72
2023/07/03 02:38:52;;;;;;;12.88;10.35;;;;;;;-141.84;65.16;20939.94;4908367;29;20716;-72
2023/07/03 02:41:22;;;;;;;14.13;10.48;;;;;;;-141.84;65.30;20915.53;4888887;29;20234;-71
2023/07/03 02:43:52;;;;;;;15.48;9.80;;;;;;;-141.84;65.28;20960.25;4904588;29;20337;-70
2023/07/03 02:46:21;;;;;;;14.95;10.95;;;;;;;-141.84;65.78;20907.41;4888567;29;20306;-71
2023/07/03 02:48:49;;;;;;;14.98;10.38;;;;;;;-141.84;65.94;20901.31;4888528;29;20234;-71
2023/07/03 02:51:18;;;;;;;12.57;9.82;;;;;;;-141.84;66.15;20944.00;4888621;29;20250;-72
2023/07/03 02:53:46;;;;;;;12.45;10.25;;;;;;;-141.84;64.74;20944.00;4888620;29;20302;-72
2023/07/03 02:56:15;;;;;;;15.05;10.10;;;;;;;-141.84;65.42;20919.59;4885610;29;20677;-69
2023/07/03 02:58:43;;;;;;;12.90;10.20;;;;;;;-141.84;64.53;20966.34;4888513;29;20238;-72
2023/07/03 03:01:14;;;;;;;15.45;10.43;;;;;;;-141.84;64.49;20933.81;4888285;29;20268;-70
2023/07/03 03:03:44;;;;;;;13.13;9.98;;;;;;;-141.84;63.85;20941.97;4892583;29;20331;-73
2023/07/03 03:06:12;;;;;;;13.90;10.75;;;;;;;-141.84;64.06;20935.88;4869943;29;20211;-71
2023/07/03 03:08:41;;;;;;;14.75;10.60;;;;;;;-141.84;63.58;20952.13;4866678;29;20306;-73
2023/07/03 03:11:10;;;;;;;14.90;9.88;;;;;;;-141.84;63.41;20950.09;4871226;29;20326;-69
2023/07/03 03:13:39;;;;;;;15.85;10.75;;;;;;;-141.84;62.30;21002.94;4906882;29;20341;-71
2023/07/03 03:16:07;;;;;;;15.23;10.07;;;;;;;-141.84;62.60;20978.56;4888775;29;20318;-72
2023/07/03 03:18:37;;;;;;;15.05;10.18;;;;;;;-141.84;61.94;21015.16;4880158;29;20265;-72
2023/07/03 03:21:05;;;;;;;15.98;10.90;;;;;;;-141.84;62.28;20978.56;4901181;29;20705;-71
2023/07/03 03:23:34;;;;;;;16.75;10.35;;;;;;;-141.84;61.64;20980.59;4907214;29;20236;-71
2023/07/03 03:26:06;;;;;;;15.63;10.40;;;;;;;-141.84;62.00;20986.69;4902247;29;20253;-71
2023/07/03 03:28:35;;;;;;;13.95;10.23;;;;;;;-141.84;62.25;20978.56;4880792;29;20317;-71
2023/07/03 03:31:03;;;;;;;14.63;10.35;;;;;;;-141.84;61.69;20937.91;4896827;29;20269;-71
2023/07/03 03:33:32;;;;;;;15.40;10.48;;;;;;;-141.84;61.67;20992.78;4895882;29;20235;-70
2023/07/03 03:36:02;;;;;;;14.85;10.23;;;;;;;-141.84;61.26;21002.94;4871400;29;20251;-71
2023/07/03 03:38:30;;;;;;;13.18;9.75;;;;;;;-141.84;61.85;21004.97;4864406;29;20247;-72
2023/07/03 03:41:01;;;;;;;14.85;10.13;;;;;;;-141.84;62.05;20984.66;4881168;29;20352;-70
2023/07/03 03:43:30;;;;;;;16.15;10.48;;;;;;;-141.84;61.59;20994.81;4891739;29;20277;-71
2023/07/03 03:46:00;;;;;;;16.83;10.60;;;;;;;-141.84;60.25;21057.84;4891857;29;20258;-71
2023/07/03 03:48:31;;;;;;;14.15;10.45;;;;;;;-141.84;60.44;21074.09;4884416;29;20226;-71
2023/07/03 03:51:01;;;;;;;13.00;9.82;;;;;;;-141.84;59.66;21065.97;4889288;29;20217;-70
2023/07/03 03:53:29;;;;;;;18.27;10.32;;;;;;;-141.84;60.01;21035.47;4889101;29;20303;-71
2023/07/03 03:55:58;;;;;;;15.85;11.02;;;;;;;-141.84;59.84;21072.06;4888799;29;20571;-70
2023/07/03 03:58:27;;;;;;;16.13;10.90;;;;;;;-141.84;59.72;21080.19;4883970;29;20230;-70
2023/07/03 04:00:55;;;;;;;17.35;11.45;;;;;;;-141.84;58.84;21092.41;4891175;29;20254;-71
2023/07/03 04:03:24;;;;;;;15.95;10.77;;;;;;;-141.84;57.88;21165.59;4887459;29;20261;-72
2023/07/03 04:05:52;;;;;;;13.07;9.82;;;;;;;-141.84;58.44;21133.06;4872942;29;20215;-71
2023/07/03 04:08:23;;;;;;;14.80;10.40;;;;;;;-141.84;57.72;21155.44;4863493;29;20267;-70
2023/07/03 04:10:52;;;;;;;14.35;9.60;;;;;;;-141.84;57.96;21137.13;4873543;29;20272;-71
2023/07/03 04:13:20;;;;;;;14.27;10.75;;;;;;;-141.84;57.46;21139.16;4908646;29;20293;-71
2023/07/03 04:15:58;;;;;;;16.25;10.68;;;;;;;-141.84;57.03;21185.91;4893560;29;20230;-72
2023/07/03 04:18:28;;;;;;;16.30;10.75;;;;;;;-141.84;57.31;21187.97;4884553;29;20249;-70
2023/07/03 04:20:57;;;;;;;15.52;11.07;;;;;;;-141.84;55.96;21250.97;4904001;29;20210;-72
2023/07/03 04:23:29;;;;;;;14.18;10.13;;;;;;;-141.84;56.36;21214.38;4897826;29;20289;-71
2023/07/03 04:25:57;;;;;;;13.70;10.30;;;;;;;-141.84;56.51;21214.38;4889153;29;20245;-70
2023/07/03 04:28:26;;;;;;;15.02;9.70;;;;;;;-141.84;55.76;21250.97;4885593;29;20301;-71
2023/07/03 04:30:55;;;;;;;15.80;9.95;;;;;;;-141.84;56.86;21175.75;4902951;28;20285;-71
2023/07/03 04:33:23;;;;;;;15.68;9.90;;;;;;;-141.84;57.04;21137.13;4902008;29;20231;-70
2023/07/03 04:35:52;;;;;;;17.23;10.50;;;;;;;-141.84;56.75;21171.69;4873802;29;20306;-70
2023/07/03 04:38:24;;;;;;;16.50;10.73;;;;;;;-141.84;56.44;21200.16;4867249;29;20235;-71
2023/07/03 04:40:54;;;;;;;15.98;10.85;;;;;;;-141.84;56.42;21196.09;4883911;29;20684;-71
2023/07/03 04:43:23;;;;;;;15.82;10.20;;;;;;;-141.84;55.76;21246.91;4894674;29;20270;-71
2023/07/03 04:45:55;;;;;;;17.83;10.80;;;;;;;-141.84;55.14;21273.34;4894377;29;20234;-72
2023/07/03 04:48:24;;;;;;;15.88;10.40;;;;;;;-141.84;54.93;21261.16;4884319;29;20294;-71
2023/07/03 04:50:53;;;;;;;15.48;10.15;;;;;;;-141.84;54.29;21305.88;4891952;29;20214;-68
2023/07/03 04:53:23;;;;;;;15.75;10.30;;;;;;;-141.84;53.91;21354.66;4910866;29;20289;-71
2023/07/03 04:55:53;;;;;;;18.27;10.13;;;;;;;-141.84;51.50;21582.38;4895293;29;20703;-71
2023/07/03 04:58:22;;;;;;;16.77;10.27;;;;;;;-141.84;48.47;21783.69;4884930;29;20290;-72
2023/07/03 05:00:51;;;;;;;15.43;10.05;;;;;;;-141.84;48.05;21814.19;4891962;29;20314;-71
2023/07/03 05:03:19;;;;;;;21.08;10.52;;;;;;;-141.84;48.02;21789.78;4881208;29;20238;-71
2023/07/03 05:05:48;;;;;;;16.95;10.10;;;;;;;-141.84;48.74;21745.06;4891357;29;20572;-71
2023/07/03 05:08:17;;;;;;;11.60;9.32;;;;;;;-141.84;49.22;21712.53;4882632;29;20662;-68
2023/07/03 05:10:47;;;;;;;13.73;9.48;;;;;;;-141.84;47.35;21946.38;4890688;29;20683;-72
2023/07/03 05:13:17;;;;;;;16.55;9.73;;;;;;;-141.84;45.73;22168.03;4908663;29;20234;-71
2023/07/03 05:15:46;;;;;;;14.32;9.88;;;;;;;-141.84;45.00;22170.06;4895659;29;20269;-71
2023/07/03 05:18:14;;;;;;;17.25;10.38;;;;;;;-141.84;45.59;21997.19;4888645;29;20228;-74
2023/07/03 05:20:44;;;;;;;15.25;9.88;;;;;;;-141.84;46.85;21907.72;4903352;29;20254;-72
2023/07/03 05:23:15;;;;;;;14.05;9.00;;;;;;;-141.84;48.52;21818.25;4909965;29;20230;-71
2023/07/03 05:25:44;;;;;;;19.20;10.50;;;;;;;-141.84;48.84;21734.88;4907884;29;20274;-70
2023/07/03 05:28:13;;;;;;;13.60;9.70;;;;;;;-141.84;49.43;21637.28;4887240;29;20318;-72
2023/07/03 05:30:43;;;;;;;16.65;9.60;;;;;;;-141.84;49.48;21641.34;4869963;29;20235;-71
2023/07/03 05:33:11;;;;;;;13.85;9.20;;;;;;;-141.84;48.62;21767.44;4872976;29;20298;-72
2023/07/03 05:35:40;;;;;;;15.57;9.55;;;;;;;-141.84;46.93;21936.19;4874472;29;20712;-74
2023/07/03 05:38:18;;;;;;;13.40;9.23;;;;;;;-141.84;46.19;21964.66;4886491;29;20577;-74
2023/07/03 05:40:49;;;;;;;15.23;8.93;;;;;;;-141.84;46.26;21869.09;4898676;29;20280;-74
2023/07/03 05:43:19;;;;;;;12.05;8.38;;;;;;;-141.84;47.99;21673.88;4909965;29;20240;-74
2023/07/03 05:45:50;;;;;;;16.02;8.90;;;;;;;-141.84;48.78;21590.53;4909929;29;20277;-75
2023/07/03 05:48:19;;;;;;;13.23;8.40;;;;;;;-141.84;48.75;21606.78;4901740;28;20317;-74
2023/07/03 05:50:48;;;;;;;13.40;7.80;;;;;;;-141.84;48.36;21614.94;4910649;29;20210;-75
2023/07/03 05:53:16;;;;;;;15.52;7.32;;;;;;;-141.84;47.57;21657.63;4909998;29;20301;-74
2023/07/03 05:55:53;;;;;;;12.98;7.22;;;;;;;-141.84;47.06;21655.59;4910053;29;20801;-73
2023/07/03 05:58:22;;;;;;;10.63;6.90;;;;;;;-141.84;46.61;21692.19;4903628;29;20253;-74
2023/07/03 06:00:52;;;;;;;12.18;7.20;;;;;;;-141.84;46.29;21655.59;4910048;29;20238;-74
2023/07/03 06:03:24;;;;;;;12.68;6.50;;;;;;;-141.84;46.11;21641.34;4920637;28;20242;-74
2023/07/03 06:05:53;;;;;;;10.65;6.10;;;;;;;-141.84;45.59;21659.66;4909721;29;20698;-68
2023/07/03 06:08:22;;;;;;;11.50;6.15;;;;;;;-141.84;45.20;21734.88;4902114;29;20206;-73
2023/07/03 06:10:52;;;;;;;10.88;5.85;;;;;;;-141.84;44.16;21712.53;4909187;29;20677;-75
2023/07/03 06:13:20;;;;;;;19.00;6.22;;;;;;;-141.84;45.32;21741.00;4927454;28;20240;-74
2023/07/03 06:15:50;;;;;;;12.00;6.22;;;;;;;-141.84;44.86;21765.38;4912418;29;20325;-75
2023/07/03 06:18:19;;;;;;;11.88;5.50;;;;;;;-141.84;43.47;21785.72;4902380;28;20248;-74
2023/07/03 06:20:48;;;;;;;11.65;5.40;;;;;;;-141.84;42.49;21863.00;4909432;29;20289;-73
2023/07/03 06:23:17;;;;;;;12.07;5.00;;;;;;;-141.84;41.62;21891.47;4897067;28;20325;-74
2023/07/03 06:25:46;;;;;;;10.05;4.90;;;;;;;-141.84;41.53;22029.75;4892459;29;20697;-73
2023/07/03 06:28:15;;;;;;;9.70;5.03;;;;;;;-141.84;40.07;22013.47;4893837;28;20317;-73
2023/07/03 06:30:48;;;;;;;10.15;5.07;;;;;;;-141.84;40.88;21956.53;4909048;28;20273;-76
2023/07/03 06:33:20;;;;;;;8.40;5.07;;;;;;;-141.84;41.77;21948.41;4902610;28;20235;-75
2023/07/03 06:35:50;;;;;;;9.38;5.13;;;;;;;-141.84;42.00;21842.66;4871266;29;20215;-74
2023/07/03 06:38:19;;;;;;;9.60;5.18;;;;;;;-141.84;42.42;21834.53;4881475;29;20227;-73
2023/07/03 06:40:57;;;;;;;10.15;4.90;;;;;;;-141.84;42.72;21830.47;4882716;29;20290;-75
2023/07/03 06:43:26;;;;;;;11.90;5.35;;;;;;;-141.84;43.18;21769.47;4889109;29;20257;-75
2023/07/03 06:45:54;;;;;;;16.25;5.60;;;;;;;-141.84;43.63;21686.09;4896673;29;20245;-75
2023/07/03 06:48:27;;;;;;;8.23;5.13;;;;;;;-141.84;44.54;21619.00;4896847;29;20234;-75
2023/07/03 06:51:03;;;;;;;10.57;5.28;;;;;;;-141.84;44.56;21647.47;4888356;29;20253;-75
2023/07/03 06:53:32;;;;;;;10.90;4.30;;;;;;;-141.84;43.59;21582.38;4889895;29;20298;-75
2023/07/03 06:56:01;;;;;;;17.92;4.15;;;;;;;-141.84;42.80;21570.19;4888863;29;20338;-75
2023/07/03 06:58:31;;;;;;;9.93;4.10;;;;;;;-141.84;43.38;21568.16;4880711;29;20289;-75
2023/07/03 07:01:05;;;;;;;10.65;3.83;;;;;;;-141.84;43.47;21539.69;4887529;29;20230;-74
2023/07/03 07:03:35;;;;;;;12.10;4.03;;;;;;;-141.84;43.11;21578.31;4882501;29;20263;-76
2023/07/03 07:06:10;;;;;;;12.70;4.07;;;;;;;-141.84;43.08;21631.19;4869564;29;20631;-76
2023/07/03 07:08:39;;;;;;;14.05;4.43;;;;;;;-141.84;42.91;21671.84;4864807;29;20310;-75
2023/07/03 07:11:10;;;;;;;10.38;3.80;;;;;;;-141.84;42.25;21675.94;4876571;29;20263;-78
2023/07/03 07:13:40;;;;;;;13.35;4.32;;;;;;;-141.84;42.46;21612.88;4909423;29;20276;-75
2023/07/03 07:16:13;;;;;;;11.13;4.07;;;;;;;-141.84;42.12;21655.59;4890137;29;20660;-77
2023/07/03 07:18:43;;;;;;;12.80;3.67;;;;;;;-141.84;42.49;21751.16;4889741;29;20230;-75
2023/07/03 07:21:11;;;;;;;10.10;3.70;;;;;;;-141.84;42.01;21741.00;4889171;29;20217;-76
2023/07/03 07:23:40;;;;;;;7.50;3.67;;;;;;;-141.84;41.09;21736.94;4890420;29;20221;-75
2023/07/03 07:26:09;;;;;;;7.93;3.47;;;;;;;-141.84;41.05;21769.47;4888991;29;20801;-75
2023/07/03 07:28:37;;;;;;;7.70;3.33;;;;;;;-141.84;41.24;21787.75;4872022;29;20243;-75
2023/07/03 07:31:06;;;;;;;7.60;3.55;;;;;;;-141.84;40.91;21763.34;4870304;29;20754;-76
2023/07/03 07:33:34;;;;;;;8.10;3.83;;;;;;;-141.84;41.11;21698.28;4872280;29;20318;-75
2023/07/03 07:36:04;;;;;;;6.22;3.20;;;;;;;-141.84;41.32;21690.16;4870629;29;20298;-75
2023/07/03 07:38:33;;;;;;;10.95;3.95;;;;;;;-141.84;41.75;21738.97;4864006;29;20600;-76
2023/07/03 07:41:02;;;;;;;8.93;4.05;;;;;;;-141.84;42.71;21775.56;4883802;29;20273;-76
2023/07/03 07:43:31;;;;;;;14.07;4.65;;;;;;;-141.84;41.85;21773.53;4891091;29;20765;-76
2023/07/03 07:46:00;;;;;;;8.43;3.80;;;;;;;-141.84;41.48;21690.16;4889628;29;20265;-76
2023/07/03 07:48:28;;;;;;;9.10;4.13;;;;;;;-141.84;41.73;21708.47;4882810;29;20235;-76
2023/07/03 07:51:01;;;;;;;6.72;4.00;;;;;;;-141.84;42.02;21663.72;4888483;29;20238;-75
2023/07/03 07:53:31;;;;;;;6.80;4.43;;;;;;;-141.84;41.85;21696.25;4889781;29;20743;-75
2023/07/03 07:56:00;;;;;;;7.43;4.28;;;;;;;-141.84;41.34;21663.72;4888023;29;20321;-76
2023/07/03 07:58:28;;;;;;;8.80;4.25;;;;;;;-141.84;41.91;21706.44;4881753;29;20249;-75
2023/07/03 08:00:57;;;;;;;8.38;4.10;;;;;;;-141.84;41.70;21714.56;4890524;29;20231;-76
2023/07/03 08:03:27;;;;;;;7.45;4.18;;;;;;;-141.84;41.56;21710.50;4902417;29;20406;-74
2023/07/03 08:05:58;;;;;;;7.32;3.80;;;;;;;-141.84;41.34;21741.00;4930849;28;20241;-75
2023/07/03 08:08:26;;;;;;;10.55;4.20;;;;;;;-141.84;40.79;21785.72;4911687;28;20678;-76
2023/07/03 08:10:58;;;;;;;8.55;4.25;;;;;;;-141.84;40.43;21791.81;4911630;28;20261;-75
2023/07/03 08:13:29;;;;;;;7.47;4.15;;;;;;;-141.84;40.48;21808.09;4911751;28;20253;-76
2023/07/03 08:15:58;;;;;;;6.40;3.60;;;;;;;-141.84;40.20;21858.94;4895730;28;20298;-77
2023/07/03 08:18:27;;;;;;;9.27;4.25;;;;;;;-141.84;40.00;21883.31;4887478;29;20318;-75
2023/07/03 08:20:56;;;;;;;10.38;4.40;;;;;;;-141.84;40.16;21946.38;4907586;28;20210;-75
2023/07/03 08:23:25;;;;;;;9.60;4.18;;;;;;;-141.84;39.67;21919.94;4913324;28;20210;-75
2023/07/03 08:25:56;;;;;;;12.90;4.75;;;;;;;-141.84;39.85;21889.44;4912045;28;20306;-75
2023/07/03 08:28:24;;;;;;;10.73;4.70;;;;;;;-141.84;40.25;21850.78;4904991;28;20256;-75
2023/07/03 08:30:53;;;;;;;9.27;4.00;;;;;;;-141.84;39.48;21907.72;4912476;28;20249;-75
2023/07/03 08:33:21;;;;;;;10.65;4.43;;;;;;;-141.84;38.79;21991.09;4904761;28;20287;-76
2023/07/03 08:35:50;;;;;;;12.20;4.82;;;;;;;-141.84;39.58;21987.03;4876213;29;20671;-76
2023/07/03 08:38:21;;;;;;;9.63;4.10;;;;;;;-141.84;38.84;21976.88;4906158;29;20345;-76
2023/07/03 08:40:58;;;;;;;10.50;4.45;;;;;;;-141.84;38.68;21895.53;4896808;29;20309;-76
2023/07/03 08:43:33;;;;;;;10.85;4.25;;;;;;;-141.84;38.72;21924.00;4893220;29;20262;-75
2023/07/03 08:46:03;;;;;;;6.95;3.78;;;;;;;-141.84;38.23;21960.59;4890498;29;20242;-74
2023/07/03 08:48:35;;;;;;;8.15;4.05;;;;;;;-141.84;38.30;21944.34;4883237;29;20311;-75
2023/07/03 08:51:08;;;;;;;10.95;4.07;;;;;;;-141.84;37.52;21948.41;4890267;29;21006;-75
2023/07/03 08:53:40;;;;;;;6.32;3.28;;;;;;;-141.84;38.27;21993.13;4893436;29;20293;-74
2023/07/03 08:56:16;;;;;;;8.00;3.70;;;;;;;-141.84;38.15;21976.88;4893271;29;20278;-75
2023/07/03 08:58:45;;;;;;;8.13;3.70;;;;;;;-141.84;37.69;21972.81;4893123;29;20289;-75
2023/07/03 09:01:33;;;;;;;7.28;3.55;;;;;;;-141.84;37.23;21960.59;4891981;29;20238;-76
2023/07/03 09:04:17;;;;;;;6.32;3.40;;;;;;;-141.84;37.82;22005.34;4889844;29;20238;-77
2023/07/03 09:06:52;;;;;;;7.18;3.38;;;;;;;-141.84;37.07;21972.81;4897812;29;20236;-75
2023/07/03 09:09:27;;;;;;;7.03;2.83;;;;;;;-141.84;36.83;21976.88;4910402;29;20259;-74
2023/07/03 09:12:03;;;;;;;4.70;2.78;;;;;;;-141.84;36.44;21966.69;4900500;29;20218;-75
2023/07/03 09:14:38;;;;;;;5.40;2.67;;;;;;;-141.84;36.64;21956.53;4888411;29;20210;-77
2023/07/03 09:17:09;;;;;;;7.53;3.65;;;;;;;-141.84;36.42;21997.19;4895975;29;20244;-75
2023/07/03 09:19:43;;;;;;;6.10;3.08;;;;;;;-141.84;35.91;22029.75;4896844;29;20238;-75
2023/07/03 09:22:25;;;;;;;7.60;3.00;;;;;;;-141.84;35.45;22119.22;4914869;29;20233;-75
2023/07/03 09:24:57;;;;;;;5.13;2.83;;;;;;;-141.84;33.89;22163.94;4918435;29;20238;-73
2023/07/03 09:27:28;;;;;;;7.28;3.17;;;;;;;-141.84;34.27;22096.84;4918590;29;20237;-73
2023/07/03 09:30:03;;;;;;;8.13;3.38;;;;;;;-141.84;34.71;22064.31;4900227;29;20223;-74
2023/07/03 09:32:33;;;;;;;5.68;2.80;;;;;;;-141.84;35.11;22025.66;4911653;28;20244;-74
2023/07/03 09:35:12;;;;;;;8.05;3.15;;;;;;;-141.84;34.67;21972.81;4883170;29;20311;-74
2023/07/03 09:37:42;;;;;;;7.00;2.88;;;;;;;-141.84;34.68;22017.53;4880692;29;20239;-75
2023/07/03 09:40:18;;;;;;;5.80;2.85;;;;;;;-141.84;34.65;22054.13;4885883;29;20234;-74
2023/07/03 09:42:48;;;;;;;7.03;2.88;;;;;;;-141.84;34.32;22052.09;4900367;29;20234;-75
2023/07/03 09:45:19;;;;;;;6.95;2.92;;;;;;;-141.84;34.63;22031.78;4899874;29;20302;-74
2023/07/03 09:47:50;;;;;;;6.18;2.72;;;;;;;-141.84;34.42;22076.50;4899687;29;20709;-74
2023/07/03 09:50:27;;;;;;;5.18;2.90;;;;;;;-141.84;34.15;22098.88;4889107;29;20257;-74
2023/07/03 09:52:57;;;;;;;5.38;2.75;;;;;;;-141.84;34.49;22117.19;4894721;29;20235;-76
2023/07/03 09:55:37;;;;;;;5.68;2.60;;;;;;;-141.84;34.42;22182.25;4898592;29;20234;-74
2023/07/03 09:58:14;;;;;;;6.40;2.75;;;;;;;-141.84;33.92;22176.16;4895874;29;20290;-77
2023/07/03 10:00:48;;;;;;;5.30;2.78;;;;;;;-141.84;34.39;22145.66;4894174;29;20253;-75
2023/07/03 10:03:24;;;;;;;5.95;2.78;;;;;;;-141.84;33.81;22131.41;4895316;29;20289;-77
2023/07/03 10:05:56;;;;;;;5.43;2.92;;;;;;;-141.84;34.20;22161.91;4901586;29;20263;-76
2023/07/03 10:08:29;;;;;;;7.70;3.20;;;;;;;-141.84;34.32;22186.31;4891967;29;20253;-76
2023/07/03 10:11:03;;;;;;;4.00;2.45;;;;;;;-141.84;34.55;22200.56;4891682;29;20244;-75
2023/07/03 10:13:43;;;;;;;4.57;2.65;;;;;;;-141.84;34.79;22186.31;4895790;29;20459;-74
2023/07/03 10:16:14;;;;;;;7.03;2.70;;;;;;;-141.84;34.27;22261.56;4897404;29;20234;-75
2023/07/03 10:18:48;;;;;;;6.15;2.83;;;;;;;-141.84;34.03;22259.53;4890446;29;20238;-76
2023/07/03 10:21:21;;;;;;;4.80;2.58;;;;;;;-141.84;34.08;22279.88;4906995;28;20237;-76
2023/07/03 10:23:51;;;;;;;4.68;2.42;;;;;;;-141.84;33.82;22340.88;4914136;29;20210;-75
2023/07/03 10:26:22;;;;;;;5.85;2.53;;;;;;;-141.84;34.14;22344.94;4908916;29;20226;-75
2023/07/03 10:28:58;;;;;;;5.30;2.20;;;;;;;-141.84;33.49;22261.56;4916778;28;20238;-76
2023/07/03 10:31:32;;;;;;;6.72;2.55;;;;;;;-141.84;33.73;22285.97;4917048;28;20240;-74
2023/07/03 10:34:06;;;;;;;5.93;2.70;;;;;;;-141.84;33.53;22257.50;4897118;28;20654;-75
2023/07/03 10:36:39;;;;;;;6.72;3.20;;;;;;;-141.84;33.36;22281.91;4874305;29;20685;-75
2023/07/03 10:39:14;;;;;;;6.53;2.90;;;;;;;-141.84;33.68;22186.31;4879248;29;20287;-74
2023/07/03 10:41:47;;;;;;;6.05;3.17;;;;;;;-141.84;34.19;22202.59;4908470;28;20284;-73
2023/07/03 10:44:24;;;;;;;7.60;3.28;;;;;;;-141.84;34.07;22255.47;4910179;28;20238;-74
2023/07/03 10:46:59;;;;;;;5.18;2.65;;;;;;;-141.84;33.59;22218.84;4897748;29;20234;-74
2023/07/03 10:49:30;;;;;;;7.43;2.63;;;;;;;-141.84;33.40;22231.06;4897712;29;20230;-75
2023/07/03 10:52:11;;;;;;;5.78;2.80;;;;;;;-141.84;33.55;22188.34;4897180;29;20714;-74
2023/07/03 10:54:48;;;;;;;5.10;2.60;;;;;;;-141.84;33.69;22174.13;4892859;29;20234;-75
2023/07/03 10:57:24;;;;;;;4.72;2.35;;;;;;;-141.84;34.22;22163.94;4899086;29;20233;-75
2023/07/03 10:59:59;;;;;;;5.22;2.55;;;;;;;-141.84;34.14;22155.81;4898349;29;20214;-73
2023/07/03 11:02:35;;;;;;;3.75;2.38;;;;;;;-141.84;34.02;22196.50;4911622;29;20316;-75
2023/07/03 11:05:14;;;;;;;4.57;2.33;;;;;;;-141.84;33.35;22243.25;4897630;29;20237;-73
2023/07/03 11:07:52;;;;;;;5.53;2.90;;;;;;;-141.84;34.37;22214.78;4896932;29;20277;-74
2023/07/03 11:10:32;;;;;;;4.28;2.40;;;;;;;-141.84;34.95;22218.84;4892156;29;20269;-75
2023/07/03 11:13:07;;;;;;;8.65;2.58;;;;;;;-141.84;33.85;22304.28;4929978;28;20302;-75